sensor_id;sensor_type;location;lat;lon;timestamp;P1;durP1;ratioP1;P2;durP2;ratioP2
4244;SDS011;2136;48.502;9.194;2023-06-04T00:01:13;12.23;;;8.70;;
4244;SDS011;2136;48.502;9.194;2023-06-04T00:03:40;11.10;;;7.27;;
4244;SDS011;2136;48.502;9.194;2023-06-04T00:06:08;10.53;;;8.57;;
4244;SDS011;2136;48.502;9.194;2023-06-04T00:08:35;9.20;;;8.00;;
4244;SDS011;2136;48.502;9.194;2023-06-04T00:11:02;10.30;;;8.30;;
4244;SDS011;2136;48.502;9.194;2023-06-04T00:13:30;15.07;;;8.37;;
4244;SDS011;2136;48.502;9.194;2023-06-04T00:15:57;10.20;;;7.93;;
4244;SDS011;2136;48.502;9.194;2023-06-04T00:18:24;10.13;;;8.43;;
4244;SDS011;2136;48.502;9.194;2023-06-04T00:20:50;10.63;;;8.13;;
4244;SDS011;2136;48.502;9.194;2023-06-04T00:23:17;14.00;;;8.27;;
4244;SDS011;2136;48.502;9.194;2023-06-04T00:25:44;13.43;;;8.47;;
4244;SDS011;2136;48.502;9.194;2023-06-04T00:28:11;10.13;;;7.77;;
4244;SDS011;2136;48.502;9.194;2023-06-04T00:30:40;19.73;;;8.33;;
4244;SDS011;2136;48.502;9.194;2023-06-04T00:33:06;11.53;;;8.10;;
4244;SDS011;2136;48.502;9.194;2023-06-04T00:35:33;9.20;;;6.80;;
4244;SDS011;2136;48.502;9.194;2023-06-04T00:38:00;10.13;;;7.40;;
4244;SDS011;2136;48.502;9.194;2023-06-04T00:40:27;10.77;;;7.27;;
4244;SDS011;2136;48.502;9.194;2023-06-04T00:42:54;12.00;;;8.27;;
4244;SDS011;2136;48.502;9.194;2023-06-04T00:45:21;12.17;;;7.50;;
4244;SDS011;2136;48.502;9.194;2023-06-04T00:47:52;8.97;;;7.43;;
4244;SDS011;2136;48.502;9.194;2023-06-04T00:50:20;9.63;;;8.23;;
4244;SDS011;2136;48.502;9.194;2023-06-04T00:52:47;12.77;;;8.20;;
4244;SDS011;2136;48.502;9.194;2023-06-04T00:55:15;13.43;;;8.63;;
4244;SDS011;2136;48.502;9.194;2023-06-04T00:57:43;11.40;;;7.80;;
4244;SDS011;2136;48.502;9.194;2023-06-04T01:00:10;9.57;;;7.93;;
4244;SDS011;2136;48.502;9.194;2023-06-04T01:02:39;11.77;;;8.73;;
4244;SDS011;2136;48.502;9.194;2023-06-04T01:05:14;10.80;;;8.37;;
4244;SDS011;2136;48.502;9.194;2023-06-04T01:07:46;14.47;;;8.53;;
4244;SDS011;2136;48.502;9.194;2023-06-04T01:10:14;11.53;;;7.57;;
4244;SDS011;2136;48.502;9.194;2023-06-04T01:12:41;14.07;;;8.10;;
4244;SDS011;2136;48.502;9.194;2023-06-04T01:15:08;9.33;;;8.00;;
4244;SDS011;2136;48.502;9.194;2023-06-04T01:17:37;11.90;;;7.80;;
4244;SDS011;2136;48.502;9.194;2023-06-04T01:20:12;11.37;;;8.57;;
4244;SDS011;2136;48.502;9.194;2023-06-04T01:22:48;13.98;;;7.97;;
4244;SDS011;2136;48.502;9.194;2023-06-04T01:25:28;8.60;;;7.70;;
4244;SDS011;2136;48.502;9.194;2023-06-04T01:27:59;10.37;;;7.60;;
4244;SDS011;2136;48.502;9.194;2023-06-04T01:30:29;12.93;;;8.50;;
4244;SDS011;2136;48.502;9.194;2023-06-04T01:32:58;13.83;;;8.27;;
4244;SDS011;2136;48.502;9.194;2023-06-04T01:35:27;9.67;;;7.60;;
4244;SDS011;2136;48.502;9.194;2023-06-04T01:37:56;9.67;;;7.60;;
4244;SDS011;2136;48.502;9.194;2023-06-04T01:40:23;9.37;;;7.57;;
4244;SDS011;2136;48.502;9.194;2023-06-04T01:42:51;10.00;;;7.60;;
4244;SDS011;2136;48.502;9.194;2023-06-04T01:45:18;10.33;;;7.43;;
4244;SDS011;2136;48.502;9.194;2023-06-04T01:47:47;20.37;;;8.77;;
4244;SDS011;2136;48.502;9.194;2023-06-04T01:50:13;11.60;;;8.03;;
4244;SDS011;2136;48.502;9.194;2023-06-04T01:52:42;9.77;;;8.00;;
4244;SDS011;2136;48.502;9.194;2023-06-04T01:55:09;10.43;;;8.07;;
4244;SDS011;2136;48.502;9.194;2023-06-04T01:57:38;8.40;;;7.50;;
4244;SDS011;2136;48.502;9.194;2023-06-04T02:00:07;16.93;;;8.97;;
4244;SDS011;2136;48.502;9.194;2023-06-04T02:02:35;12.73;;;7.90;;
4244;SDS011;2136;48.502;9.194;2023-06-04T02:05:03;11.03;;;8.80;;
4244;SDS011;2136;48.502;9.194;2023-06-04T02:07:32;9.70;;;8.20;;
4244;SDS011;2136;48.502;9.194;2023-06-04T02:10:01;9.97;;;8.17;;
4244;SDS011;2136;48.502;9.194;2023-06-04T02:12:27;15.40;;;8.10;;
4244;SDS011;2136;48.502;9.194;2023-06-04T02:14:54;10.10;;;7.10;;
4244;SDS011;2136;48.502;9.194;2023-06-04T02:17:21;10.40;;;8.53;;
4244;SDS011;2136;48.502;9.194;2023-06-04T02:19:48;10.57;;;7.93;;
4244;SDS011;2136;48.502;9.194;2023-06-04T02:22:16;10.70;;;8.37;;
4244;SDS011;2136;48.502;9.194;2023-06-04T02:24:42;11.23;;;8.53;;
4244;SDS011;2136;48.502;9.194;2023-06-04T02:27:11;12.53;;;8.47;;
4244;SDS011;2136;48.502;9.194;2023-06-04T02:29:39;13.57;;;9.37;;
4244;SDS011;2136;48.502;9.194;2023-06-04T02:32:07;10.03;;;7.90;;
4244;SDS011;2136;48.502;9.194;2023-06-04T02:34:34;10.87;;;8.40;;
4244;SDS011;2136;48.502;9.194;2023-06-04T02:37:01;13.63;;;8.93;;
4244;SDS011;2136;48.502;9.194;2023-06-04T02:39:28;13.50;;;8.23;;
4244;SDS011;2136;48.502;9.194;2023-06-04T02:41:55;16.10;;;9.60;;
4244;SDS011;2136;48.502;9.194;2023-06-04T02:44:23;13.57;;;9.30;;
4244;SDS011;2136;48.502;9.194;2023-06-04T02:46:50;12.40;;;8.40;;
4244;SDS011;2136;48.502;9.194;2023-06-04T02:49:17;11.47;;;8.77;;
4244;SDS011;2136;48.502;9.194;2023-06-04T02:51:44;12.83;;;8.13;;
4244;SDS011;2136;48.502;9.194;2023-06-04T02:54:11;9.43;;;7.90;;
4244;SDS011;2136;48.502;9.194;2023-06-04T02:56:38;10.00;;;8.40;;
4244;SDS011;2136;48.502;9.194;2023-06-04T02:59:05;14.70;;;7.70;;
4244;SDS011;2136;48.502;9.194;2023-06-04T03:01:35;17.10;;;8.47;;
4244;SDS011;2136;48.502;9.194;2023-06-04T03:04:02;14.37;;;9.57;;
4244;SDS011;2136;48.502;9.194;2023-06-04T03:06:30;10.03;;;7.83;;
4244;SDS011;2136;48.502;9.194;2023-06-04T03:08:57;11.93;;;9.07;;
4244;SDS011;2136;48.502;9.194;2023-06-04T03:11:24;11.30;;;8.93;;
4244;SDS011;2136;48.502;9.194;2023-06-04T03:13:53;10.23;;;8.53;;
4244;SDS011;2136;48.502;9.194;2023-06-04T03:16:20;10.67;;;7.90;;
4244;SDS011;2136;48.502;9.194;2023-06-04T03:18:48;11.93;;;9.43;;
4244;SDS011;2136;48.502;9.194;2023-06-04T03:21:15;12.57;;;8.77;;
4244;SDS011;2136;48.502;9.194;2023-06-04T03:23:42;11.50;;;8.03;;
4244;SDS011;2136;48.502;9.194;2023-06-04T03:26:09;16.03;;;9.30;;
4244;SDS011;2136;48.502;9.194;2023-06-04T03:28:38;10.57;;;8.43;;
4244;SDS011;2136;48.502;9.194;2023-06-04T03:31:05;14.83;;;9.10;;
4244;SDS011;2136;48.502;9.194;2023-06-04T03:33:32;16.33;;;9.70;;
4244;SDS011;2136;48.502;9.194;2023-06-04T03:36:00;15.90;;;8.97;;
4244;SDS011;2136;48.502;9.194;2023-06-04T03:38:28;10.03;;;7.80;;
4244;SDS011;2136;48.502;9.194;2023-06-04T03:40:55;15.67;;;9.70;;
4244;SDS011;2136;48.502;9.194;2023-06-04T03:43:22;11.40;;;8.80;;
4244;SDS011;2136;48.502;9.194;2023-06-04T03:45:48;18.10;;;10.47;;
4244;SDS011;2136;48.502;9.194;2023-06-04T03:48:15;15.87;;;8.57;;
4244;SDS011;2136;48.502;9.194;2023-06-04T03:50:42;11.30;;;8.47;;
4244;SDS011;2136;48.502;9.194;2023-06-04T03:53:12;13.00;;;8.93;;
4244;SDS011;2136;48.502;9.194;2023-06-04T03:55:39;12.17;;;9.10;;
4244;SDS011;2136;48.502;9.194;2023-06-04T03:58:06;12.87;;;8.80;;
4244;SDS011;2136;48.502;9.194;2023-06-04T04:00:34;15.13;;;9.90;;
4244;SDS011;2136;48.502;9.194;2023-06-04T04:03:01;12.37;;;9.20;;
4244;SDS011;2136;48.502;9.194;2023-06-04T04:05:28;14.13;;;8.73;;
4244;SDS011;2136;48.502;9.194;2023-06-04T04:07:55;14.50;;;9.77;;
4244;SDS011;2136;48.502;9.194;2023-06-04T04:10:23;13.87;;;9.20;;
4244;SDS011;2136;48.502;9.194;2023-06-04T04:12:50;15.30;;;10.23;;
4244;SDS011;2136;48.502;9.194;2023-06-04T04:15:19;9.80;;;8.00;;
4244;SDS011;2136;48.502;9.194;2023-06-04T04:17:46;11.27;;;8.50;;
4244;SDS011;2136;48.502;9.194;2023-06-04T04:20:13;11.57;;;8.43;;
4244;SDS011;2136;48.502;9.194;2023-06-04T04:22:41;12.87;;;9.30;;
4244;SDS011;2136;48.502;9.194;2023-06-04T04:25:08;11.30;;;8.40;;
4244;SDS011;2136;48.502;9.194;2023-06-04T04:27:37;12.60;;;9.37;;
4244;SDS011;2136;48.502;9.194;2023-06-04T04:30:06;11.50;;;8.50;;
4244;SDS011;2136;48.502;9.194;2023-06-04T04:32:34;12.00;;;9.20;;
4244;SDS011;2136;48.502;9.194;2023-06-04T04:35:03;11.13;;;9.43;;
4244;SDS011;2136;48.502;9.194;2023-06-04T04:37:33;22.83;;;8.97;;
4244;SDS011;2136;48.502;9.194;2023-06-04T04:40:05;12.07;;;8.73;;
4244;SDS011;2136;48.502;9.194;2023-06-04T04:42:37;13.30;;;9.47;;
4244;SDS011;2136;48.502;9.194;2023-06-04T04:45:04;11.03;;;8.47;;
4244;SDS011;2136;48.502;9.194;2023-06-04T04:47:32;22.03;;;10.73;;
4244;SDS011;2136;48.502;9.194;2023-06-04T04:49:59;13.40;;;9.13;;
4244;SDS011;2136;48.502;9.194;2023-06-04T04:52:26;17.87;;;10.00;;
4244;SDS011;2136;48.502;9.194;2023-06-04T04:54:52;12.80;;;9.77;;
4244;SDS011;2136;48.502;9.194;2023-06-04T04:57:22;10.60;;;8.47;;
4244;SDS011;2136;48.502;9.194;2023-06-04T04:59:50;12.20;;;8.93;;
4244;SDS011;2136;48.502;9.194;2023-06-04T05:02:17;12.43;;;9.50;;
4244;SDS011;2136;48.502;9.194;2023-06-04T05:04:44;13.57;;;9.20;;
4244;SDS011;2136;48.502;9.194;2023-06-04T05:07:11;12.50;;;9.67;;
4244;SDS011;2136;48.502;9.194;2023-06-04T05:09:38;11.40;;;8.60;;
4244;SDS011;2136;48.502;9.194;2023-06-04T05:12:04;15.43;;;9.23;;
4244;SDS011;2136;48.502;9.194;2023-06-04T05:14:31;11.70;;;8.93;;
4244;SDS011;2136;48.502;9.194;2023-06-04T05:17:02;13.27;;;10.50;;
4244;SDS011;2136;48.502;9.194;2023-06-04T05:19:29;12.40;;;8.50;;
4244;SDS011;2136;48.502;9.194;2023-06-04T05:21:58;17.00;;;9.63;;
4244;SDS011;2136;48.502;9.194;2023-06-04T05:24:25;16.83;;;9.20;;
4244;SDS011;2136;48.502;9.194;2023-06-04T05:26:53;15.80;;;9.33;;
4244;SDS011;2136;48.502;9.194;2023-06-04T05:29:21;15.17;;;9.27;;
4244;SDS011;2136;48.502;9.194;2023-06-04T05:31:48;15.40;;;9.33;;
4244;SDS011;2136;48.502;9.194;2023-06-04T05:34:16;10.20;;;8.07;;
4244;SDS011;2136;48.502;9.194;2023-06-04T05:36:43;11.80;;;8.40;;
4244;SDS011;2136;48.502;9.194;2023-06-04T05:39:10;11.77;;;9.10;;
4244;SDS011;2136;48.502;9.194;2023-06-04T05:41:37;10.97;;;8.00;;
4244;SDS011;2136;48.502;9.194;2023-06-04T05:44:03;10.83;;;7.73;;
4244;SDS011;2136;48.502;9.194;2023-06-04T05:46:30;8.47;;;7.10;;
4244;SDS011;2136;48.502;9.194;2023-06-04T05:48:57;11.83;;;7.10;;
4244;SDS011;2136;48.502;9.194;2023-06-04T05:51:25;9.77;;;6.23;;
4244;SDS011;2136;48.502;9.194;2023-06-04T05:53:52;14.90;;;7.53;;
4244;SDS011;2136;48.502;9.194;2023-06-04T05:56:19;10.10;;;7.10;;
4244;SDS011;2136;48.502;9.194;2023-06-04T05:58:50;11.13;;;6.90;;
4244;SDS011;2136;48.502;9.194;2023-06-04T06:01:17;11.33;;;6.80;;
4244;SDS011;2136;48.502;9.194;2023-06-04T06:03:45;8.03;;;5.97;;
4244;SDS011;2136;48.502;9.194;2023-06-04T06:06:11;8.70;;;6.60;;
4244;SDS011;2136;48.502;9.194;2023-06-04T06:08:40;9.70;;;6.70;;
4244;SDS011;2136;48.502;9.194;2023-06-04T06:11:07;10.87;;;6.33;;
4244;SDS011;2136;48.502;9.194;2023-06-04T06:13:34;9.77;;;6.50;;
4244;SDS011;2136;48.502;9.194;2023-06-04T06:16:01;11.60;;;5.83;;
4244;SDS011;2136;48.502;9.194;2023-06-04T06:18:29;13.90;;;6.40;;
4244;SDS011;2136;48.502;9.194;2023-06-04T06:20:56;11.13;;;6.50;;
4244;SDS011;2136;48.502;9.194;2023-06-04T06:23:24;9.10;;;5.60;;
4244;SDS011;2136;48.502;9.194;2023-06-04T06:25:52;6.93;;;6.17;;
4244;SDS011;2136;48.502;9.194;2023-06-04T06:28:19;5.93;;;5.17;;
4244;SDS011;2136;48.502;9.194;2023-06-04T06:30:46;7.80;;;5.20;;
4244;SDS011;2136;48.502;9.194;2023-06-04T06:33:13;7.67;;;5.17;;
4244;SDS011;2136;48.502;9.194;2023-06-04T06:35:41;8.10;;;4.87;;
4244;SDS011;2136;48.502;9.194;2023-06-04T06:38:11;6.70;;;5.10;;
4244;SDS011;2136;48.502;9.194;2023-06-04T06:40:38;8.67;;;4.87;;
4244;SDS011;2136;48.502;9.194;2023-06-04T06:43:07;7.97;;;5.30;;
4244;SDS011;2136;48.502;9.194;2023-06-04T06:45:35;5.17;;;4.60;;
4244;SDS011;2136;48.502;9.194;2023-06-04T06:48:02;5.60;;;4.10;;
4244;SDS011;2136;48.502;9.194;2023-06-04T06:50:30;5.70;;;5.13;;
4244;SDS011;2136;48.502;9.194;2023-06-04T06:52:58;5.50;;;5.00;;
4244;SDS011;2136;48.502;9.194;2023-06-04T06:55:25;8.37;;;5.13;;
4244;SDS011;2136;48.502;9.194;2023-06-04T06:57:52;6.20;;;4.33;;
4244;SDS011;2136;48.502;9.194;2023-06-04T07:00:20;5.13;;;4.63;;
4244;SDS011;2136;48.502;9.194;2023-06-04T07:02:47;9.40;;;5.20;;
4244;SDS011;2136;48.502;9.194;2023-06-04T07:05:14;6.90;;;5.43;;
4244;SDS011;2136;48.502;9.194;2023-06-04T07:07:42;5.07;;;4.07;;
4244;SDS011;2136;48.502;9.194;2023-06-04T07:10:09;8.60;;;4.73;;
4244;SDS011;2136;48.502;9.194;2023-06-04T07:12:36;8.23;;;4.00;;
4244;SDS011;2136;48.502;9.194;2023-06-04T07:15:04;7.10;;;4.73;;
4244;SDS011;2136;48.502;9.194;2023-06-04T07:17:33;6.10;;;4.50;;
4244;SDS011;2136;48.502;9.194;2023-06-04T07:20:00;9.90;;;4.23;;
4244;SDS011;2136;48.502;9.194;2023-06-04T07:22:28;4.10;;;3.70;;
4244;SDS011;2136;48.502;9.194;2023-06-04T07:24:55;9.40;;;3.87;;
4244;SDS011;2136;48.502;9.194;2023-06-04T07:27:22;5.40;;;3.30;;
4244;SDS011;2136;48.502;9.194;2023-06-04T07:29:49;6.33;;;3.90;;
4244;SDS011;2136;48.502;9.194;2023-06-04T07:32:16;3.90;;;3.50;;
4244;SDS011;2136;48.502;9.194;2023-06-04T07:34:44;4.73;;;4.23;;
4244;SDS011;2136;48.502;9.194;2023-06-04T07:37:11;7.93;;;3.83;;
4244;SDS011;2136;48.502;9.194;2023-06-04T07:39:40;5.33;;;3.80;;
4244;SDS011;2136;48.502;9.194;2023-06-04T07:42:07;4.53;;;3.50;;
4244;SDS011;2136;48.502;9.194;2023-06-04T07:44:36;5.00;;;3.57;;
4244;SDS011;2136;48.502;9.194;2023-06-04T07:47:03;12.23;;;3.60;;
4244;SDS011;2136;48.502;9.194;2023-06-04T07:49:30;4.80;;;3.77;;
4244;SDS011;2136;48.502;9.194;2023-06-04T07:51:59;4.53;;;4.03;;
4244;SDS011;2136;48.502;9.194;2023-06-04T07:54:26;10.50;;;4.50;;
4244;SDS011;2136;48.502;9.194;2023-06-04T07:56:56;7.10;;;4.20;;
4244;SDS011;2136;48.502;9.194;2023-06-04T07:59:23;3.87;;;3.50;;
4244;SDS011;2136;48.502;9.194;2023-06-04T08:01:50;5.00;;;3.70;;
4244;SDS011;2136;48.502;9.194;2023-06-04T08:04:18;8.30;;;3.97;;
4244;SDS011;2136;48.502;9.194;2023-06-04T08:06:44;5.03;;;3.57;;
4244;SDS011;2136;48.502;9.194;2023-06-04T08:09:13;5.77;;;3.60;;
4244;SDS011;2136;48.502;9.194;2023-06-04T08:11:41;4.10;;;3.70;;
4244;SDS011;2136;48.502;9.194;2023-06-04T08:14:09;6.43;;;3.27;;
4244;SDS011;2136;48.502;9.194;2023-06-04T08:16:37;3.70;;;3.30;;
4244;SDS011;2136;48.502;9.194;2023-06-04T08:19:04;4.60;;;3.40;;
4244;SDS011;2136;48.502;9.194;2023-06-04T08:21:32;5.23;;;2.90;;
4244;SDS011;2136;48.502;9.194;2023-06-04T08:23:59;7.63;;;2.97;;
4244;SDS011;2136;48.502;9.194;2023-06-04T08:26:28;3.73;;;3.40;;
4244;SDS011;2136;48.502;9.194;2023-06-04T08:28:55;3.67;;;3.37;;
4244;SDS011;2136;48.502;9.194;2023-06-04T08:31:22;3.30;;;3.00;;
4244;SDS011;2136;48.502;9.194;2023-06-04T08:33:49;6.20;;;3.07;;
4244;SDS011;2136;48.502;9.194;2023-06-04T08:36:16;3.60;;;2.70;;
4244;SDS011;2136;48.502;9.194;2023-06-04T08:38:43;3.40;;;2.80;;
4244;SDS011;2136;48.502;9.194;2023-06-04T08:41:11;3.37;;;3.07;;
4244;SDS011;2136;48.502;9.194;2023-06-04T08:43:42;4.43;;;3.13;;
4244;SDS011;2136;48.502;9.194;2023-06-04T08:46:10;3.07;;;2.87;;
4244;SDS011;2136;48.502;9.194;2023-06-04T08:48:38;4.17;;;2.70;;
4244;SDS011;2136;48.502;9.194;2023-06-04T08:51:05;4.70;;;2.83;;
4244;SDS011;2136;48.502;9.194;2023-06-04T08:53:34;3.93;;;2.97;;
4244;SDS011;2136;48.502;9.194;2023-06-04T08:56:01;6.40;;;2.23;;
4244;SDS011;2136;48.502;9.194;2023-06-04T08:58:30;3.00;;;2.70;;
4244;SDS011;2136;48.502;9.194;2023-06-04T09:00:59;6.43;;;2.70;;
4244;SDS011;2136;48.502;9.194;2023-06-04T09:03:27;5.53;;;3.73;;
4244;SDS011;2136;48.502;9.194;2023-06-04T09:05:56;3.13;;;2.83;;
4244;SDS011;2136;48.502;9.194;2023-06-04T09:08:23;2.70;;;2.50;;
4244;SDS011;2136;48.502;9.194;2023-06-04T09:10:51;3.33;;;3.03;;
4244;SDS011;2136;48.502;9.194;2023-06-04T09:13:21;5.40;;;3.37;;
4244;SDS011;2136;48.502;9.194;2023-06-04T09:16:00;4.50;;;2.63;;
4244;SDS011;2136;48.502;9.194;2023-06-04T09:18:27;3.80;;;3.40;;
4244;SDS011;2136;48.502;9.194;2023-06-04T09:21:03;6.30;;;2.93;;
4244;SDS011;2136;48.502;9.194;2023-06-04T09:23:31;2.70;;;2.50;;
4244;SDS011;2136;48.502;9.194;2023-06-04T09:26:06;5.50;;;2.87;;
4244;SDS011;2136;48.502;9.194;2023-06-04T09:28:34;4.00;;;3.00;;
4244;SDS011;2136;48.502;9.194;2023-06-04T09:31:02;3.27;;;2.90;;
4244;SDS011;2136;48.502;9.194;2023-06-04T09:33:29;7.80;;;3.40;;
4244;SDS011;2136;48.502;9.194;2023-06-04T09:35:57;3.33;;;3.00;;
4244;SDS011;2136;48.502;9.194;2023-06-04T09:38:31;3.87;;;2.50;;
4244;SDS011;2136;48.502;9.194;2023-06-04T09:40:59;3.50;;;3.20;;
4244;SDS011;2136;48.502;9.194;2023-06-04T09:43:29;4.33;;;2.30;;
4244;SDS011;2136;48.502;9.194;2023-06-04T09:46:08;4.40;;;3.10;;
4244;SDS011;2136;48.502;9.194;2023-06-04T09:48:36;7.20;;;2.97;;
4244;SDS011;2136;48.502;9.194;2023-06-04T09:51:06;8.10;;;3.73;;
4244;SDS011;2136;48.502;9.194;2023-06-04T09:53:34;4.60;;;2.40;;
4244;SDS011;2136;48.502;9.194;2023-06-04T09:56:02;4.33;;;3.40;;
4244;SDS011;2136;48.502;9.194;2023-06-04T09:58:29;3.77;;;2.70;;
4244;SDS011;2136;48.502;9.194;2023-06-04T10:00:57;7.43;;;2.97;;
4244;SDS011;2136;48.502;9.194;2023-06-04T10:03:28;6.87;;;3.10;;
4244;SDS011;2136;48.502;9.194;2023-06-04T10:06:02;5.15;;;2.78;;
4244;SDS011;2136;48.502;9.194;2023-06-04T10:08:31;5.10;;;3.30;;
4244;SDS011;2136;48.502;9.194;2023-06-04T10:10:59;4.90;;;3.10;;
4244;SDS011;2136;48.502;9.194;2023-06-04T10:13:27;3.67;;;2.90;;
4244;SDS011;2136;48.502;9.194;2023-06-04T10:15:57;4.87;;;2.97;;
4244;SDS011;2136;48.502;9.194;2023-06-04T10:18:26;3.37;;;3.07;;
4244;SDS011;2136;48.502;9.194;2023-06-04T10:20:55;3.80;;;3.00;;
4244;SDS011;2136;48.502;9.194;2023-06-04T10:23:22;7.30;;;3.33;;
4244;SDS011;2136;48.502;9.194;2023-06-04T10:25:50;4.35;;;3.00;;
4244;SDS011;2136;48.502;9.194;2023-06-04T10:28:19;3.53;;;2.70;;
4244;SDS011;2136;48.502;9.194;2023-06-04T10:30:47;3.60;;;2.80;;
4244;SDS011;2136;48.502;9.194;2023-06-04T10:33:15;3.73;;;2.73;;
4244;SDS011;2136;48.502;9.194;2023-06-04T10:35:46;3.13;;;2.90;;
4244;SDS011;2136;48.502;9.194;2023-06-04T10:38:13;4.30;;;3.10;;
4244;SDS011;2136;48.502;9.194;2023-06-04T10:40:41;5.87;;;3.47;;
4244;SDS011;2136;48.502;9.194;2023-06-04T10:43:09;5.93;;;3.80;;
4244;SDS011;2136;48.502;9.194;2023-06-04T10:45:37;3.40;;;2.87;;
4244;SDS011;2136;48.502;9.194;2023-06-04T10:48:04;3.70;;;3.13;;
4244;SDS011;2136;48.502;9.194;2023-06-04T10:50:33;7.17;;;3.20;;
4244;SDS011;2136;48.502;9.194;2023-06-04T10:53:02;4.23;;;3.53;;
4244;SDS011;2136;48.502;9.194;2023-06-04T10:55:30;6.10;;;3.33;;
4244;SDS011;2136;48.502;9.194;2023-06-04T10:58:00;3.77;;;3.37;;
4244;SDS011;2136;48.502;9.194;2023-06-04T11:00:35;5.00;;;3.70;;
4244;SDS011;2136;48.502;9.194;2023-06-04T11:03:02;5.47;;;4.70;;
4244;SDS011;2136;48.502;9.194;2023-06-04T11:05:34;6.57;;;3.70;;
4244;SDS011;2136;48.502;9.194;2023-06-04T11:08:03;3.70;;;3.40;;
4244;SDS011;2136;48.502;9.194;2023-06-04T11:10:31;4.17;;;3.80;;
4244;SDS011;2136;48.502;9.194;2023-06-04T11:12:59;5.20;;;3.40;;
4244;SDS011;2136;48.502;9.194;2023-06-04T11:15:26;3.50;;;3.20;;
4244;SDS011;2136;48.502;9.194;2023-06-04T11:18:03;3.57;;;3.27;;
4244;SDS011;2136;48.502;9.194;2023-06-04T11:20:30;3.80;;;3.50;;
4244;SDS011;2136;48.502;9.194;2023-06-04T11:22:57;4.73;;;3.20;;
4244;SDS011;2136;48.502;9.194;2023-06-04T11:25:29;4.33;;;3.93;;
4244;SDS011;2136;48.502;9.194;2023-06-04T11:27:58;3.77;;;3.47;;
4244;SDS011;2136;48.502;9.194;2023-06-04T11:30:26;3.63;;;3.43;;
4244;SDS011;2136;48.502;9.194;2023-06-04T11:33:00;6.93;;;3.87;;
4244;SDS011;2136;48.502;9.194;2023-06-04T11:35:28;4.37;;;3.97;;
4244;SDS011;2136;48.502;9.194;2023-06-04T11:37:56;4.10;;;3.70;;
4244;SDS011;2136;48.502;9.194;2023-06-04T11:40:24;5.50;;;4.00;;
4244;SDS011;2136;48.502;9.194;2023-06-04T11:42:53;4.50;;;3.40;;
4244;SDS011;2136;48.502;9.194;2023-06-04T11:45:21;6.27;;;3.93;;
4244;SDS011;2136;48.502;9.194;2023-06-04T11:47:49;4.10;;;3.60;;
4244;SDS011;2136;48.502;9.194;2023-06-04T11:50:18;4.80;;;3.03;;
4244;SDS011;2136;48.502;9.194;2023-06-04T11:52:45;3.80;;;3.40;;
4244;SDS011;2136;48.502;9.194;2023-06-04T11:55:12;3.87;;;3.57;;
4244;SDS011;2136;48.502;9.194;2023-06-04T11:57:42;7.13;;;3.60;;
4244;SDS011;2136;48.502;9.194;2023-06-04T12:00:11;4.50;;;3.30;;
4244;SDS011;2136;48.502;9.194;2023-06-04T12:02:48;9.03;;;4.40;;
4244;SDS011;2136;48.502;9.194;2023-06-04T12:05:17;6.57;;;3.47;;
4244;SDS011;2136;48.502;9.194;2023-06-04T12:07:46;4.30;;;3.90;;
4244;SDS011;2136;48.502;9.194;2023-06-04T12:10:15;3.87;;;3.57;;
4244;SDS011;2136;48.502;9.194;2023-06-04T12:12:43;5.73;;;4.40;;
4244;SDS011;2136;48.502;9.194;2023-06-04T12:15:12;5.13;;;4.10;;
4244;SDS011;2136;48.502;9.194;2023-06-04T12:17:51;4.23;;;3.77;;
4244;SDS011;2136;48.502;9.194;2023-06-04T12:20:18;9.87;;;3.50;;
4244;SDS011;2136;48.502;9.194;2023-06-04T12:22:48;4.10;;;3.80;;
4244;SDS011;2136;48.502;9.194;2023-06-04T12:25:23;4.77;;;4.33;;
4244;SDS011;2136;48.502;9.194;2023-06-04T12:27:52;4.77;;;3.90;;
4244;SDS011;2136;48.502;9.194;2023-06-04T12:30:20;6.10;;;4.07;;
4244;SDS011;2136;48.502;9.194;2023-06-04T12:32:48;14.57;;;3.80;;
4244;SDS011;2136;48.502;9.194;2023-06-04T12:35:25;3.90;;;3.60;;
4244;SDS011;2136;48.502;9.194;2023-06-04T12:37:54;3.73;;;3.40;;
4244;SDS011;2136;48.502;9.194;2023-06-04T12:40:22;5.23;;;4.00;;
4244;SDS011;2136;48.502;9.194;2023-06-04T12:42:49;4.93;;;4.53;;
4244;SDS011;2136;48.502;9.194;2023-06-04T12:45:16;8.80;;;4.13;;
4244;SDS011;2136;48.502;9.194;2023-06-04T12:47:45;5.00;;;4.50;;
4244;SDS011;2136;48.502;9.194;2023-06-04T12:50:12;6.53;;;4.23;;
4244;SDS011;2136;48.502;9.194;2023-06-04T12:52:39;6.00;;;4.07;;
4244;SDS011;2136;48.502;9.194;2023-06-04T12:55:07;5.10;;;4.60;;
4244;SDS011;2136;48.502;9.194;2023-06-04T12:57:35;5.53;;;4.47;;
4244;SDS011;2136;48.502;9.194;2023-06-04T13:00:02;6.70;;;3.87;;
4244;SDS011;2136;48.502;9.194;2023-06-04T13:02:29;4.27;;;3.87;;
4244;SDS011;2136;48.502;9.194;2023-06-04T13:04:58;5.00;;;4.20;;
4244;SDS011;2136;48.502;9.194;2023-06-04T13:07:24;9.03;;;5.70;;
4244;SDS011;2136;48.502;9.194;2023-06-04T13:09:51;7.90;;;3.80;;
4244;SDS011;2136;48.502;9.194;2023-06-04T13:12:18;4.43;;;4.03;;
4244;SDS011;2136;48.502;9.194;2023-06-04T13:14:45;4.57;;;4.17;;
4244;SDS011;2136;48.502;9.194;2023-06-04T13:17:12;5.70;;;4.10;;
4244;SDS011;2136;48.502;9.194;2023-06-04T13:19:38;5.90;;;4.30;;
4244;SDS011;2136;48.502;9.194;2023-06-04T13:22:07;4.27;;;3.87;;
4244;SDS011;2136;48.502;9.194;2023-06-04T13:24:34;5.53;;;3.97;;
4244;SDS011;2136;48.502;9.194;2023-06-04T13:27:01;4.43;;;3.90;;
4244;SDS011;2136;48.502;9.194;2023-06-04T13:29:28;4.70;;;4.30;;
4244;SDS011;2136;48.502;9.194;2023-06-04T13:31:58;5.13;;;4.63;;
4244;SDS011;2136;48.502;9.194;2023-06-04T13:34:25;4.73;;;4.30;;
4244;SDS011;2136;48.502;9.194;2023-06-04T13:36:52;7.07;;;4.90;;
4244;SDS011;2136;48.502;9.194;2023-06-04T13:39:21;4.67;;;4.00;;
4244;SDS011;2136;48.502;9.194;2023-06-04T13:41:48;6.00;;;4.43;;
4244;SDS011;2136;48.502;9.194;2023-06-04T13:44:14;7.70;;;4.63;;
4244;SDS011;2136;48.502;9.194;2023-06-04T13:46:41;5.60;;;4.13;;
4244;SDS011;2136;48.502;9.194;2023-06-04T13:49:08;4.50;;;4.10;;
4244;SDS011;2136;48.502;9.194;2023-06-04T13:51:35;6.67;;;5.53;;
4244;SDS011;2136;48.502;9.194;2023-06-04T13:54:02;5.70;;;4.83;;
4244;SDS011;2136;48.502;9.194;2023-06-04T13:56:30;9.83;;;6.70;;
4244;SDS011;2136;48.502;9.194;2023-06-04T13:58:57;10.23;;;6.43;;
4244;SDS011;2136;48.502;9.194;2023-06-04T14:01:24;7.50;;;5.07;;
4244;SDS011;2136;48.502;9.194;2023-06-04T14:03:51;6.13;;;5.50;;
4244;SDS011;2136;48.502;9.194;2023-06-04T14:06:18;6.83;;;4.63;;
4244;SDS011;2136;48.502;9.194;2023-06-04T14:08:45;5.10;;;4.60;;
4244;SDS011;2136;48.502;9.194;2023-06-04T14:11:12;28.50;;;20.83;;
4244;SDS011;2136;48.502;9.194;2023-06-04T14:13:40;9.50;;;7.90;;
4244;SDS011;2136;48.502;9.194;2023-06-04T14:16:10;5.90;;;4.60;;
4244;SDS011;2136;48.502;9.194;2023-06-04T14:18:37;8.03;;;4.30;;
4244;SDS011;2136;48.502;9.194;2023-06-04T14:21:04;7.07;;;4.27;;
4244;SDS011;2136;48.502;9.194;2023-06-04T14:23:31;5.75;;;4.13;;
4244;SDS011;2136;48.502;9.194;2023-06-04T14:25:58;4.90;;;4.20;;
4244;SDS011;2136;48.502;9.194;2023-06-04T14:28:25;7.13;;;5.20;;
4244;SDS011;2136;48.502;9.194;2023-06-04T14:30:53;10.80;;;4.37;;
4244;SDS011;2136;48.502;9.194;2023-06-04T14:33:20;4.50;;;4.10;;
4244;SDS011;2136;48.502;9.194;2023-06-04T14:35:47;10.30;;;4.50;;
4244;SDS011;2136;48.502;9.194;2023-06-04T14:38:14;8.37;;;5.20;;
4244;SDS011;2136;48.502;9.194;2023-06-04T14:40:41;5.73;;;5.13;;
4244;SDS011;2136;48.502;9.194;2023-06-04T14:43:08;5.67;;;4.73;;
4244;SDS011;2136;48.502;9.194;2023-06-04T14:45:36;7.57;;;5.83;;
4244;SDS011;2136;48.502;9.194;2023-06-04T14:48:06;4.70;;;4.30;;
4244;SDS011;2136;48.502;9.194;2023-06-04T14:50:32;5.40;;;4.43;;
4244;SDS011;2136;48.502;9.194;2023-06-04T14:52:59;6.97;;;4.67;;
4244;SDS011;2136;48.502;9.194;2023-06-04T14:55:26;16.80;;;6.50;;
4244;SDS011;2136;48.502;9.194;2023-06-04T14:57:53;9.13;;;6.30;;
4244;SDS011;2136;48.502;9.194;2023-06-04T15:00:20;9.90;;;8.60;;
4244;SDS011;2136;48.502;9.194;2023-06-04T15:02:47;7.50;;;5.20;;
4244;SDS011;2136;48.502;9.194;2023-06-04T15:05:15;16.73;;;9.77;;
4244;SDS011;2136;48.502;9.194;2023-06-04T15:07:42;9.43;;;4.67;;
4244;SDS011;2136;48.502;9.194;2023-06-04T15:10:09;30.37;;;21.50;;
4244;SDS011;2136;48.502;9.194;2023-06-04T15:12:36;7.33;;;5.00;;
4244;SDS011;2136;48.502;9.194;2023-06-04T15:15:05;7.13;;;4.50;;